CheckWX is a tool to help pilots better visualize weather data.  It is not intended as a substitute for an official pre-flight weather briefing.

12:26:44 UTC

UAAA TAF
Almaty Airport
Almaty, Kazakhstan
TAF UAAA 261100Z 2612/2712 16003MPS 3100 BR FU FEW050 SCT100 TX20/2708Z TN05/2701Z TEMPO 2613/2622 20003MPS 1200 FM270400 02003MPS 9999 SCT050CB BKN100 TEMPO 2704/2712 06004MPS

Mar-26@
12:00 UTC

Mar-26 @ 12:00 UTC

Mar-27@
04:00 UTC

Mar-27 @ 04:00 UTC

TAF UAAA 261100Z 2612/2712 16003MPS 3100 BR FU FEW050 SCT100 TX20/2708Z TN05/2701Z
Wind
  • 160° at 6 KTS
Conditions
Mist, Smoke
Cloud Levels
  • Few at 5,000' AGL
  • Scattered at 10,000' AGL

Mar-26@
13:00 UTC

Mar-26 @ 13:00 UTC

Mar-26@
22:00 UTC

Mar-26 @ 22:00 UTC

TEMPO 2613/2622 20003MPS 1200

Temporary

Temporary Changes expected for less than half the time period

Wind
  • 200° at 6 KTS

Mar-27@
04:00 UTC

Mar-27 @ 04:00 UTC

Mar-27@
12:00 UTC

Mar-27 @ 12:00 UTC

FM270400 02003MPS 9999 SCT050CB BKN100

From

From Standard forecast or significant change

Wind
  • 020° at 6 KTS
Cloud Levels
  • Scattered at 5,000' AGL
  • Broken at 10,000' AGL

Mar-27@
04:00 UTC

Mar-27 @ 04:00 UTC

Mar-27@
12:00 UTC

Mar-27 @ 12:00 UTC

TEMPO 2704/2712 06004MPS

Temporary

Temporary Changes expected for less than half the time period

Wind
  • 060° at 8 KTS